Saturday, December 15, 2018, 9:15 AM EST
Back to Local

KLWM, Lawrence Municipal Airport

Location: North Andover, MA, United States Lat: 42.717
Local Time: 9:15 AM EST (14:15 GMT) Lon: -71.133
Time Zone: US/Eastern Elev: 147 ft

Show me the last for .
Show Decoded

2018-12-15 08:54 METAR KLWM 151354Z 20005KT 10SM CLR 09/05 A3020 RMK AO2 SLP226 T00890050 =
2018-12-15 07:54 METAR KLWM 151254Z 22005KT 10SM OVC055 08/05 A3019 RMK AO2 SLP224 T00830050 =
2018-12-15 06:54 METAR KLWM 151154Z 21006KT 10SM OVC060 08/05 A3017 RMK AO2 SLP215 T00830050
                 10089 20067 53001 =
2018-12-15 05:54 METAR KLWM 151054Z AUTO 20005KT 10SM OVC060 08/05 A3016 RMK AO2 SLP213 T00830050
                 =
2018-12-15 04:54 METAR KLWM 150954Z AUTO 21005KT 10SM CLR 07/04 A3015 RMK AO2 SLP211 T00720044 =
2018-12-15 03:54 METAR KLWM 150854Z AUTO 23004KT 10SM CLR 08/05 A3016 RMK AO2 SLP214 T00830050
                 58008 =
2018-12-15 02:54 METAR KLWM 150754Z AUTO 23005KT 10SM OVC042 09/06 A3018 RMK AO2 SLP219 T00890056
                 =
2018-12-15 01:54 METAR KLWM 150654Z AUTO 20007KT 10SM OVC050 09/06 A3018 RMK AO2 SLP221 T00890056
                 =
2018-12-15 01:40 METAR KLWM 150640Z AUTO 21006KT 10SM SCT018 OVC055 08/06 A3018 RMK AO2 T00830056
                 =
2018-12-15 01:16 METAR KLWM 150616Z AUTO 24006KT 10SM SCT012 OVC018 08/06 A3019 RMK AO2 T00830056
                 =
2018-12-15 01:08 METAR KLWM 150608Z AUTO 21007KT 10SM BKN012 OVC018 08/05 A3019 RMK AO2 T00830050
                 =
2018-12-15 00:54 METAR KLWM 150554Z AUTO 21007KT 10SM BKN009 OVC018 08/05 A3019 RMK AO2 CIG
                 007V013 SLP223 T00830050 10083 20061 56027 =
2018-12-14 23:54 METAR KLWM 150454Z AUTO 21008KT 10SM OVC007 08/05 A3020 RMK AO2 SLP227 T00780050
                 400831044 =
2018-12-14 22:54 METAR KLWM 150354Z AUTO 22008KT 10SM OVC007 07/04 A3024 RMK AO2 SLP241 T00720039
                 =
2018-12-14 21:54 METAR KLWM 150254Z 21006KT 10SM OVC008 07/03 A3027 RMK AO2 SLP250 T00670028
                 56024 =
2018-12-14 21:11 METAR KLWM 150211Z 21006KT 10SM OVC009 07/03 A3027 RMK AO2 T00670028 =
2018-12-14 20:54 METAR KLWM 150154Z 20005KT 10SM BKN010 OVC075 07/02 A3028 RMK AO2 SLP255
                 T00670022 =
2018-12-14 19:54 METAR KLWM 150054Z 19006KT 10SM OVC080 07/02 A3031 RMK AO2 SLP266 T00670017 =
2018-12-14 18:54 METAR KLWM 142354Z 17005KT 10SM BKN030 BKN065 07/01 A3034 RMK AO2 SLP275
                 T00670006 10083 20056 55018 =
2018-12-14 18:29 METAR KLWM 142329Z VRB04KT 10SM OVC029 07/00 A3036 RMK AO2 T00670000 =
2018-12-14 17:54 METAR KLWM 142254Z 16004KT 10SM BKN070 BKN080 06/M01 A3038 RMK AO2 SLP288
                 T00611011 =
2018-12-14 16:54 METAR KLWM 142154Z 16003KT 10SM BKN055 06/M02 A3039 RMK AO2 SLP292 T00611022 =
2018-12-14 15:54 METAR KLWM 142054Z VRB03KT 10SM FEW055 07/M03 A3039 RMK AO2 SLP294 T00721028
                 56016 =
2018-12-14 14:54 METAR KLWM 141954Z 22004KT 10SM CLR 08/M03 A3040 RMK AO2 SLP294 T00781028 =
2018-12-14 13:54 METAR KLWM 141854Z 21004KT 10SM FEW060 08/M03 A3040 RMK AO2 SLP296 T00781028 =
2018-12-14 12:54 METAR KLWM 141754Z 19006KT 10SM SCT060 07/M03 A3044 RMK AO2 SLP310 T00721033
                 10078 21039 58037 =
2018-12-14 11:54 METAR KLWM 141654Z 21007KT 10SM CLR 06/M03 A3047 RMK AO2 SLP321 T00611028 =
2018-12-14 10:54 METAR KLWM 141554Z 22008KT 10SM CLR 05/M03 A3052 RMK AO2 SLP337 T00501028 =
2018-12-14 09:54 METAR KLWM 141454Z 18004KT 10SM CLR 02/M04 A3055 RMK AO2 SLP346 T00221044 50004
                 =

Support USWX by starting your Amazon purchase here.